createdAt,value
2018-11-22T12:15:55.942Z,19.67
2018-11-22T12:20:59.307Z,20.43
2018-11-22T12:26:02.659Z,19.30
2018-11-22T12:31:06.719Z,19.77
2018-11-22T12:36:09.398Z,22.07
2018-11-22T12:41:12.748Z,21.13
2018-11-22T12:46:16.097Z,22.87
2018-11-22T12:51:19.443Z,21.37
2018-11-22T12:56:22.852Z,17.10
2018-11-22T13:01:26.201Z,23.03
2018-11-22T13:06:30.324Z,19.50
2018-11-22T13:11:33.779Z,20.17
2018-11-22T13:16:37.127Z,20.07
2018-11-22T13:21:40.484Z,19.83
2018-11-22T13:26:44.605Z,22.87
2018-11-22T13:31:48.749Z,20.17
2018-11-22T13:36:52.088Z,19.37
2018-11-22T13:41:55.440Z,20.13
2018-11-22T13:46:59.679Z,20.83
2018-11-22T13:52:03.029Z,25.27
2018-11-22T13:57:06.383Z,21.13
2018-11-22T14:02:09.731Z,20.27
2018-11-22T14:07:13.860Z,20.43
2018-11-22T14:12:17.983Z,19.47
2018-11-22T14:17:21.334Z,20.73
2018-11-22T14:22:24.696Z,17.07
2018-11-22T14:27:28.045Z,20.63
2018-11-22T14:32:32.168Z,20.13
2018-11-22T14:37:36.288Z,17.50
2018-11-22T14:42:39.664Z,19.47
2018-11-22T14:47:43.024Z,19.60
2018-11-22T14:52:47.137Z,21.70
2018-11-22T14:57:50.492Z,21.43
2018-11-22T15:02:53.833Z,21.50
2018-11-22T15:07:57.191Z,16.03
2018-11-22T15:13:01.313Z,22.00
2018-11-22T15:18:04.657Z,22.47
2018-11-22T15:23:08.002Z,21.70
2018-11-22T15:28:11.344Z,20.87
2018-11-22T15:33:14.819Z,20.20
2018-11-22T15:38:18.168Z,19.53
2018-11-22T15:43:21.513Z,17.57
2018-11-22T15:48:24.867Z,17.87
2018-11-22T15:53:28.215Z,19.20
2018-11-22T15:58:31.576Z,21.13
2018-11-22T16:03:34.921Z,22.67
2018-11-22T16:08:38.278Z,22.27
2018-11-22T16:13:41.622Z,21.50
2018-11-22T16:18:44.974Z,18.10
2018-11-22T16:23:48.324Z,25.23
2018-11-22T16:28:51.678Z,21.50
2018-11-22T16:33:58.094Z,23.17
2018-11-22T16:39:07.604Z,22.73
2018-11-22T16:44:11.883Z,22.27
2018-11-22T16:49:15.246Z,24.23
2018-11-22T16:54:42.415Z,24.47
2018-11-22T16:59:45.784Z,20.00
2018-11-22T17:04:49.149Z,19.13
2018-11-22T17:09:52.507Z,22.77
2018-11-22T17:14:55.864Z,20.90
2018-11-22T17:19:59.242Z,22.07
2018-11-22T17:25:02.616Z,21.60
2018-11-22T17:30:11.238Z,20.80
2018-11-22T17:35:09.396Z,23.07
2018-11-22T17:40:12.745Z,20.63
2018-11-22T17:45:19.139Z,20.67
2018-11-22T17:50:23.067Z,22.07
2018-11-22T17:55:26.425Z,20.97
2018-11-22T18:00:30.704Z,22.00
2018-11-22T18:05:34.393Z,21.70
2018-11-22T18:10:38.511Z,21.03
2018-11-22T18:15:41.862Z,23.93
2018-11-22T18:20:45.204Z,20.53
2018-11-22T18:25:49.087Z,23.93
2018-11-22T18:30:51.953Z,22.27
2018-11-22T18:35:55.326Z,21.30
2018-11-22T18:40:58.678Z,20.70
2018-11-22T18:46:02.042Z,24.17
2018-11-22T18:51:05.402Z,23.37
2018-11-22T18:56:08.745Z,22.17
2018-11-22T19:01:12.100Z,25.63
2018-11-22T19:06:15.458Z,20.80
2018-11-22T19:11:18.815Z,24.63
2018-11-22T19:16:22.147Z,25.07
2018-11-22T19:21:25.512Z,25.70
2018-11-22T19:26:28.873Z,24.37
2018-11-22T19:31:32.225Z,27.80
2018-11-22T19:36:35.564Z,25.83
2018-11-22T19:41:38.905Z,26.87
2018-11-22T19:46:42.245Z,29.57
2018-11-22T19:51:45.611Z,28.17
2018-11-22T19:56:49.304Z,30.80
2018-11-22T20:01:53.749Z,30.23
2018-11-22T20:06:57.856Z,28.63
2018-11-22T20:12:01.214Z,27.40
2018-11-22T20:17:04.563Z,28.97
2018-11-22T20:22:13.221Z,30.20
2018-11-22T20:27:16.566Z,30.10
2018-11-22T20:32:38.788Z,30.63
2018-11-22T20:37:38.601Z,34.03
2018-11-22T20:42:41.959Z,28.90
2018-11-22T20:47:46.096Z,34.07
2018-11-22T20:52:49.447Z,32.37
2018-11-22T20:57:52.889Z,28.27
2018-11-22T21:02:56.245Z,32.70
2018-11-22T21:08:03.402Z,30.47
2018-11-22T21:13:06.745Z,30.70
2018-11-22T21:18:10.843Z,33.40
2018-11-22T21:23:14.201Z,27.60
2018-11-22T21:28:17.552Z,30.20
2018-11-22T21:33:20.900Z,29.23
2018-11-22T21:38:24.240Z,30.10
2018-11-22T21:43:57.616Z,30.50
2018-11-22T21:49:00.966Z,26.60
2018-11-22T21:54:04.310Z,29.53
2018-11-22T21:59:07.656Z,25.30
2018-11-22T22:04:10.999Z,33.67
2018-11-22T22:09:15.107Z,25.10
2018-11-22T22:14:24.463Z,25.40
2018-11-22T22:19:27.798Z,22.67
2018-11-22T22:24:31.897Z,21.83
2018-11-22T22:29:35.239Z,21.73
2018-11-22T22:34:39.356Z,28.17
2018-11-22T22:39:43.475Z,27.07
2018-11-22T22:44:46.826Z,21.27
2018-11-22T22:49:50.168Z,26.90
2018-11-22T22:54:53.515Z,25.80
2018-11-22T22:59:56.857Z,20.97
2018-11-22T23:05:01.010Z,23.87
2018-11-22T23:10:04.357Z,23.17
2018-11-22T23:15:07.708Z,26.67
2018-11-22T23:20:11.063Z,22.57
2018-11-22T23:25:14.398Z,24.83
